Aérodrome :
LOGIN :

S'inscrire | Disclaimer

   EN    FR    IT 

 










Légende :    VFR   VFR Marginal   IFR   IFR Intensif   IFR Très Intensif
Visi : 
Plafond : 
>= 8 km
>= 3000ft
5 à 8 km
1000 à 3000 ft
1500m à 5 km
500 à 1000 ft
800 à 1500m
200 à 500 ft
< 800m
< 200 ft
Symboles :   Orages  Brouillard  Fortes neiges  Fortes précipitations  Vent > 20 kt
SIGMETs :   Divers  Orages  Givrage  Turbulence  Onde Orograph.  Cendres Volcan.






- Altitude de l'aérodrome : 124 ft
- Code IATA : NHT


EGWU - RAF Northolt

DERNIER METAR :
  • 171920Z 25005KT 9999 SCT025CB SCT050 BKN250 10/09 Q1009 NOSIG RMK BLU BLU

METARs EXPIRÉS :
  • 171850Z 22007KT 9999 -SHRA SCT025CB SCT050 10/09 Q1009 TEMPO 7000 SHRA RMK BLU TEMPO WHT
  • 171821Z 24006KT 9999 -SHRA SCT025CB BKN050 11/09 Q1009 TEMPO 7000 SHRA SCT024 RMK BLU TEMPO WHT
  • 171750Z 31006KT 9999 -SHRA FEW025CB BKN050 12/09 Q1008 TEMPO 6000 SHRA BKN024
  • 171720Z 31003KT 9999 FEW024CB BKN050 11/10 Q1008 TEMPO 5000 SHRA
  • 171650Z 34006KT 9999 -SHRA BKN022CB BKN045 10/09 Q1008 TEMPO FEW024
  • 171634Z 34010KT 9999 SHRA BKN022CB 11/09 Q1008 TEMPO FEW022 RMK WHT TEMPO BLU

TAF TAF EGWU
Valide du 17 à 18h jusqu'au 18 à 12h UTC


171641Z 1718/1812 29008KT 9999 BKN030
TEMPO 1718/1721 4000 +SHRA SHGS BKN022CB
PROB30
TEMPO 1718/1720 29015G25KT 3000 +TSRA
PROB30
TEMPO 1804/1806 SCT008
PROB30
TEMPO 1806/1810 SCT020



MET'MAP, la Météo Aéronautique d'un coup d'oeil ! - Copyright ORBIFLY Décembre 2007 - Disclaimer

ORBIFLY MET'MAP TEAM :

Programmation & Développement : Alexandra Zaïnal
Sur une idée originale de : Baudouin d'Aumeries
Assistance à la programmation : Marc-Olivier Méhu
Soutien technique & logistique : Manuel Goepfert

Contact : metmap@orbifly.com




SOURCES & CREDITS :

   NOAA